Time;durP1;ratioP1;P1;durP2;ratioP2;P2;SDS_P1;SDS_P2;PMS_P1;PMS_P2;Temp;Humidity;BMP_temperature;BMP_pressure;BME280_temperature;BME280_humidity;BME280_pressure;Samples;Min_cycle;Max_cycle;Signal;HPM_P1;HPM_P2
2021/07/31 00:01:01;;;;;;;6.07;5.53;;;18.30;99.90;;;;;;5053240;28;20536;-81
2021/07/31 00:03:30;;;;;;;6.07;5.23;;;18.20;99.90;;;;;;5068309;28;20254;-81
2021/07/31 00:05:58;;;;;;;6.23;5.43;;;18.20;99.90;;;;;;5062830;28;20240;-81
2021/07/31 00:08:28;;;;;;;5.87;5.00;;;18.20;99.90;;;;;;5047834;28;20757;-81
2021/07/31 00:10:58;;;;;;;6.30;5.53;;;18.20;99.90;;;;;;5047779;28;20298;-81
2021/07/31 00:13:27;;;;;;;5.23;4.77;;;18.20;99.90;;;;;;5047476;28;20241;-81
2021/07/31 00:15:55;;;;;;;6.07;5.17;;;18.10;99.90;;;;;;5052435;28;20293;-81
2021/07/31 00:18:24;;;;;;;5.87;4.83;;;18.10;99.90;;;;;;5068135;28;20627;-81
2021/07/31 00:20:52;;;;;;;6.67;5.30;;;18.00;99.90;;;;;;5045493;28;20629;-81
2021/07/31 00:23:20;;;;;;;5.57;4.97;;;18.00;99.90;;;;;;5067706;28;20286;-81
2021/07/31 00:25:48;;;;;;;5.93;5.30;;;17.90;99.90;;;;;;5064242;28;20240;-81
2021/07/31 00:28:17;;;;;;;5.73;4.70;;;17.90;99.90;;;;;;5047871;28;20769;-81
2021/07/31 00:30:46;;;;;;;6.90;4.87;;;17.90;99.90;;;;;;5050387;28;20243;-81
2021/07/31 00:33:14;;;;;;;5.10;4.63;;;17.90;99.90;;;;;;5065920;28;20239;-81
2021/07/31 00:35:42;;;;;;;4.47;4.03;;;17.80;99.90;;;;;;5067606;28;20697;-81
2021/07/31 00:38:11;;;;;;;6.17;4.70;;;17.80;99.90;;;;;;5049768;28;20231;-81
2021/07/31 00:40:39;;;;;;;4.70;4.20;;;17.80;99.90;;;;;;5064753;28;20841;-81
2021/07/31 00:43:08;;;;;;;5.40;4.87;;;17.80;99.90;;;;;;5048153;28;20232;-81
2021/07/31 00:45:38;;;;;;;6.17;4.63;;;17.70;99.90;;;;;;5065551;28;20232;-81
2021/07/31 00:48:07;;;;;;;6.20;5.23;;;17.70;99.90;;;;;;5049185;28;20289;-82
2021/07/31 00:50:35;;;;;;;6.53;4.80;;;17.60;99.90;;;;;;5047416;28;20734;-82
2021/07/31 00:53:04;;;;;;;6.27;5.43;;;17.50;99.90;;;;;;5046930;28;20255;-82
2021/07/31 00:55:35;;;;;;;6.20;5.60;;;17.50;99.90;;;;;;5047011;28;20283;-81
2021/07/31 00:58:03;;;;;;;7.50;5.87;;;17.50;99.90;;;;;;5047100;28;20238;-81
2021/07/31 01:00:38;;;;;;;6.30;5.70;;;17.60;99.90;;;;;;5031010;28;20573;-82
2021/07/31 01:03:07;;;;;;;7.20;6.07;;;17.50;99.90;;;;;;5048843;28;20323;-80
2021/07/31 01:05:36;;;;;;;8.43;7.47;;;17.50;99.90;;;;;;5046859;28;20235;-81
2021/07/31 01:08:05;;;;;;;8.27;7.37;;;17.50;99.90;;;;;;5046887;28;20243;-80
2021/07/31 01:10:34;;;;;;;9.47;8.33;;;17.50;99.90;;;;;;5046464;28;20260;-81
2021/07/31 01:13:04;;;;;;;8.33;7.53;;;17.40;99.90;;;;;;5028664;28;20675;-81
2021/07/31 01:15:33;;;;;;;8.53;7.73;;;17.40;99.90;;;;;;5030281;28;20607;-81
2021/07/31 01:18:03;;;;;;;8.53;7.63;;;17.40;99.90;;;;;;5066961;28;20234;-81
2021/07/31 01:20:32;;;;;;;8.43;7.60;;;17.30;99.90;;;;;;5042612;28;20287;-82
2021/07/31 01:23:04;;;;;;;9.40;8.40;;;17.30;99.90;;;;;;5028334;28;20636;-81
2021/07/31 01:25:32;;;;;;;8.27;7.13;;;17.30;99.90;;;;;;5047861;28;20231;-81
2021/07/31 01:28:01;;;;;;;9.13;7.70;;;17.20;99.90;;;;;;5048641;28;20644;-81
2021/07/31 01:30:30;;;;;;;7.63;6.70;;;17.20;99.90;;;;;;5054310;28;20235;-81
2021/07/31 01:32:59;;;;;;;8.73;7.50;;;17.20;99.90;;;;;;5066383;28;20258;-81
2021/07/31 01:35:28;;;;;;;6.30;5.70;;;17.10;99.90;;;;;;5065011;28;20248;-81
2021/07/31 01:37:58;;;;;;;5.70;5.20;;;17.10;99.90;;;;;;5065179;28;20348;-82
2021/07/31 01:40:27;;;;;;;7.40;5.37;;;17.10;99.90;;;;;;5066061;28;20230;-81
2021/07/31 01:42:56;;;;;;;7.33;4.67;;;17.00;99.90;;;;;;5046231;28;20679;-81
2021/07/31 01:45:25;;;;;;;5.73;4.80;;;17.00;99.90;;;;;;5046568;28;20242;-82
2021/07/31 01:47:54;;;;;;;5.43;4.43;;;16.90;99.90;;;;;;5046516;28;20878;-82
2021/07/31 01:50:22;;;;;;;4.30;3.90;;;16.80;99.90;;;;;;5046854;28;20246;-81
2021/07/31 01:52:54;;;;;;;6.33;3.80;;;16.80;99.90;;;;;;5045823;28;20232;-81
2021/07/31 01:55:23;;;;;;;8.23;4.07;;;16.80;99.90;;;;;;5043653;28;20243;-81
2021/07/31 01:57:59;;;;;;;4.57;3.03;;;16.80;99.90;;;;;;5062078;28;20305;-81
2021/07/31 02:00:52;;;;;;;5.17;3.37;;;16.80;99.90;;;;;;5048956;28;20235;-81
2021/07/31 02:03:21;;;;;;;5.03;3.30;;;16.80;99.90;;;;;;5026049;28;20252;-80
2021/07/31 02:06:09;;;;;;;5.03;2.70;;;16.70;99.90;;;;;;5039837;28;20236;-80
2021/07/31 02:08:37;;;;;;;5.53;2.70;;;16.70;99.90;;;;;;5067514;28;20310;-81
2021/07/31 02:11:05;;;;;;;5.10;2.83;;;16.60;99.90;;;;;;5053388;28;20233;-80
2021/07/31 02:13:35;;;;;;;4.33;2.50;;;16.60;99.90;;;;;;5027021;28;20240;-81
2021/07/31 02:16:07;;;;;;;4.33;2.40;;;16.60;99.90;;;;;;5038141;28;20319;-81
2021/07/31 02:18:35;;;;;;;5.30;2.57;;;16.60;99.90;;;;;;5054873;28;20297;-81
2021/07/31 02:21:06;;;;;;;4.50;2.60;;;16.70;99.90;;;;;;5049674;28;20319;-81
2021/07/31 02:23:56;;;;;;;4.17;2.10;;;16.70;99.90;;;;;;5050946;28;20234;-81
2021/07/31 02:26:57;;;;;;;4.53;2.37;;;16.70;99.90;;;;;;5014543;28;20240;-81
2021/07/31 02:29:34;;;;;;;4.13;2.20;;;16.80;99.90;;;;;;5047570;28;20239;-81
2021/07/31 02:32:02;;;;;;;9.17;2.50;;;16.70;99.90;;;;;;5074836;28;20245;-81
2021/07/31 02:34:32;;;;;;;6.63;2.50;;;16.80;99.90;;;;;;5071126;28;20281;-80
2021/07/31 02:37:00;;;;;;;4.73;2.47;;;16.80;99.90;;;;;;5058908;28;20274;-80
2021/07/31 02:39:34;;;;;;;6.97;2.83;;;16.80;99.90;;;;;;5051372;28;20243;-81
2021/07/31 02:42:03;;;;;;;4.70;2.50;;;16.80;99.90;;;;;;5064341;28;20372;-81
2021/07/31 02:44:37;;;;;;;6.43;2.53;;;16.80;99.90;;;;;;5087661;28;20695;-81
2021/07/31 02:47:09;;;;;;;4.03;2.30;;;16.80;99.90;;;;;;5070765;28;20261;-80
2021/07/31 02:49:40;;;;;;;4.30;2.50;;;16.80;99.90;;;;;;5060899;28;20231;-81
2021/07/31 02:52:09;;;;;;;3.47;2.20;;;16.70;99.90;;;;;;5052308;28;20239;-81
2021/07/31 02:54:55;;;;;;;4.23;2.57;;;16.70;99.90;;;;;;5031941;28;20232;-81
2021/07/31 02:57:23;;;;;;;4.30;2.40;;;16.70;99.90;;;;;;5065729;28;20247;-80
2021/07/31 02:59:54;;;;;;;6.33;2.67;;;16.70;99.90;;;;;;5052639;28;20561;-81
2021/07/31 03:02:26;;;;;;;4.47;3.07;;;16.70;99.90;;;;;;5051071;28;20595;-81
2021/07/31 03:04:55;;;;;;;4.07;2.70;;;16.60;99.90;;;;;;5032357;28;20240;-81
2021/07/31 03:07:23;;;;;;;4.07;2.70;;;16.60;99.90;;;;;;5048268;28;20651;-81
2021/07/31 03:09:57;;;;;;;4.00;3.40;;;16.60;99.90;;;;;;5052549;28;20293;-81
2021/07/31 03:12:31;;;;;;;3.80;3.00;;;16.70;99.90;;;;;;5070619;28;20238;-81
2021/07/31 03:15:01;;;;;;;4.27;2.77;;;16.70;99.90;;;;;;5073645;28;20318;-81
2021/07/31 03:17:30;;;;;;;5.63;2.93;;;16.70;99.90;;;;;;5071562;28;20235;-80
2021/07/31 03:19:59;;;;;;;5.20;3.00;;;16.60;99.90;;;;;;5070700;28;20235;-81
2021/07/31 03:22:28;;;;;;;3.30;3.00;;;16.60;99.90;;;;;;5051162;28;20262;-80
2021/07/31 03:25:02;;;;;;;8.07;3.03;;;16.60;99.90;;;;;;5052182;28;20331;-80
2021/07/31 03:27:31;;;;;;;4.30;3.10;;;16.70;99.90;;;;;;5069231;28;20850;-81
2021/07/31 03:30:24;;;;;;;5.70;2.77;;;16.70;99.90;;;;;;5073616;28;20227;-81
2021/07/31 03:33:04;;;;;;;4.00;2.57;;;16.70;99.90;;;;;;5069223;28;20238;-81
2021/07/31 03:35:32;;;;;;;5.73;2.90;;;16.70;99.90;;;;;;5068739;28;20235;-81
2021/07/31 03:38:36;;;;;;;3.80;2.90;;;16.70;99.90;;;;;;5042537;28;20243;-81
2021/07/31 03:41:04;;;;;;;4.07;2.80;;;16.70;99.90;;;;;;5054065;28;20235;-81
2021/07/31 03:43:38;;;;;;;4.63;3.17;;;16.70;99.90;;;;;;5068294;28;20231;-81
2021/07/31 03:46:10;;;;;;;7.00;3.20;;;16.70;99.90;;;;;;5069757;28;20235;-80
2021/07/31 03:48:39;;;;;;;5.70;2.70;;;16.70;99.90;;;;;;5068654;28;20239;-80
2021/07/31 03:51:08;;;;;;;5.23;2.80;;;16.70;99.90;;;;;;5055084;28;20236;-80
2021/07/31 03:53:44;;;;;;;3.07;2.33;;;16.70;99.90;;;;;;5028536;28;20282;-81
2021/07/31 03:56:13;;;;;;;5.50;2.80;;;16.60;99.90;;;;;;5043747;28;20594;-81
2021/07/31 03:58:46;;;;;;;5.77;2.50;;;16.70;99.90;;;;;;5068603;28;20235;-80
2021/07/31 04:01:21;;;;;;;4.90;2.70;;;16.70;99.90;;;;;;5057803;28;20780;-81
2021/07/31 04:03:52;;;;;;;4.50;2.67;;;16.70;99.90;;;;;;5029565;28;20236;-80
2021/07/31 04:06:23;;;;;;;5.47;2.70;;;16.70;99.90;;;;;;5044300;28;20237;-81
2021/07/31 04:09:09;;;;;;;6.03;2.60;;;16.70;99.90;;;;;;5051944;28;20329;-81
2021/07/31 04:11:56;;;;;;;3.40;2.47;;;16.70;99.90;;;;;;5041261;28;20726;-82
2021/07/31 04:14:44;;;;;;;4.97;2.53;;;16.70;99.90;;;;;;5049382;28;20739;-81
2021/07/31 04:17:18;;;;;;;6.33;2.50;;;16.60;99.90;;;;;;5063402;28;20485;-81
2021/07/31 04:19:47;;;;;;;3.27;2.60;;;16.70;99.90;;;;;;5068152;28;20239;-81
2021/07/31 04:22:17;;;;;;;3.57;2.43;;;16.70;99.90;;;;;;5052687;28;20236;-81
2021/07/31 04:24:48;;;;;;;7.03;2.77;;;16.70;99.90;;;;;;5047697;28;20236;-81
2021/07/31 04:27:18;;;;;;;4.50;2.40;;;16.70;99.90;;;;;;5064353;28;20243;-81
2021/07/31 04:29:46;;;;;;;5.33;2.60;;;16.70;99.90;;;;;;5068865;28;20235;-81
2021/07/31 04:32:14;;;;;;;4.80;2.33;;;16.80;99.90;;;;;;5053428;28;20603;-81
2021/07/31 04:34:44;;;;;;;4.47;2.30;;;16.80;99.90;;;;;;5048512;28;20707;-82
2021/07/31 04:37:12;;;;;;;10.37;2.23;;;16.80;99.90;;;;;;5048817;28;20240;-80
2021/07/31 04:39:40;;;;;;;8.77;2.57;;;16.80;99.90;;;;;;5049006;28;20707;-80
2021/07/31 04:42:08;;;;;;;4.30;2.40;;;16.90;99.90;;;;;;5063058;28;20239;-81
2021/07/31 04:44:37;;;;;;;5.50;2.40;;;16.90;99.90;;;;;;5067000;28;20243;-81
2021/07/31 04:47:07;;;;;;;5.50;2.30;;;16.80;99.90;;;;;;5068536;28;20227;-80
2021/07/31 04:49:36;;;;;;;5.60;2.57;;;16.70;99.90;;;;;;5068344;28;20270;-80
2021/07/31 04:52:09;;;;;;;4.57;2.50;;;16.80;99.90;;;;;;5054180;28;20546;-81
2021/07/31 04:54:41;;;;;;;4.40;2.83;;;16.80;99.90;;;;;;5048570;28;20695;-80
2021/07/31 04:57:11;;;;;;;4.10;2.33;;;16.80;99.90;;;;;;5048655;28;20286;-80
2021/07/31 04:59:39;;;;;;;4.07;2.40;;;16.80;99.90;;;;;;5048627;28;20243;-81
2021/07/31 05:02:07;;;;;;;5.03;2.33;;;16.70;99.90;;;;;;5062368;28;20350;-80
2021/07/31 05:04:36;;;;;;;5.10;2.97;;;16.80;99.90;;;;;;5068061;28;20259;-81
2021/07/31 05:07:04;;;;;;;5.43;2.47;;;16.90;99.90;;;;;;5054534;28;20595;-81
2021/07/31 05:09:34;;;;;;;4.13;2.43;;;16.90;99.90;;;;;;5046922;28;20239;-81
2021/07/31 05:12:03;;;;;;;5.67;2.30;;;16.80;99.90;;;;;;5048202;28;20302;-81
2021/07/31 05:14:31;;;;;;;6.87;2.63;;;16.80;99.90;;;;;;5047817;28;20260;-81
2021/07/31 05:16:59;;;;;;;6.50;2.60;;;16.80;99.90;;;;;;5046663;28;20236;-81
2021/07/31 05:19:27;;;;;;;5.33;2.40;;;16.80;99.90;;;;;;5048278;28;20247;-81
2021/07/31 05:21:56;;;;;;;6.17;2.50;;;16.90;99.90;;;;;;5065013;28;20674;-81
2021/07/31 05:24:24;;;;;;;7.37;2.80;;;16.90;99.90;;;;;;5068657;28;20241;-81
2021/07/31 05:26:53;;;;;;;6.50;2.73;;;16.90;99.90;;;;;;5067626;28;20329;-81
2021/07/31 05:29:21;;;;;;;5.87;2.83;;;16.90;99.90;;;;;;5067591;28;20317;-80
2021/07/31 05:31:49;;;;;;;4.37;2.50;;;16.90;99.90;;;;;;5050321;28;20687;-81
2021/07/31 05:34:18;;;;;;;4.57;2.23;;;16.90;99.90;;;;;;5027233;28;20274;-81
2021/07/31 05:36:46;;;;;;;6.70;2.40;;;17.00;99.90;;;;;;5048909;28;20318;-80
2021/07/31 05:39:14;;;;;;;5.53;2.43;;;17.00;99.90;;;;;;5067572;28;20235;-80
2021/07/31 05:41:42;;;;;;;3.37;2.37;;;17.10;99.90;;;;;;5056235;28;20235;-81
2021/07/31 05:44:11;;;;;;;7.27;2.60;;;17.10;99.90;;;;;;5047655;28;20262;-80
2021/07/31 05:46:40;;;;;;;4.83;2.47;;;17.10;99.90;;;;;;5047460;28;20235;-80
2021/07/31 05:49:08;;;;;;;4.87;2.43;;;17.10;99.90;;;;;;5047557;28;20239;-81
2021/07/31 05:51:36;;;;;;;5.93;2.30;;;17.10;99.90;;;;;;5056953;28;20368;-80
2021/07/31 05:54:04;;;;;;;8.90;2.40;;;17.00;99.90;;;;;;5066839;28;20258;-80
2021/07/31 05:56:32;;;;;;;8.93;2.70;;;17.10;99.90;;;;;;5057025;28;20715;-80
2021/07/31 05:59:01;;;;;;;6.13;2.70;;;17.10;99.90;;;;;;5047484;28;20262;-81
2021/07/31 06:01:35;;;;;;;5.80;2.70;;;17.10;99.90;;;;;;5047103;28;20235;-81
2021/07/31 06:04:04;;;;;;;7.00;2.50;;;17.20;99.90;;;;;;5043771;28;20250;-80
2021/07/31 06:06:33;;;;;;;6.03;2.33;;;17.20;99.90;;;;;;5046707;28;20263;-80
2021/07/31 06:09:01;;;;;;;6.73;3.13;;;17.20;99.90;;;;;;5047392;28;20231;-81
2021/07/31 06:11:29;;;;;;;7.00;2.20;;;17.40;99.90;;;;;;5048314;28;20237;-81
2021/07/31 06:13:58;;;;;;;5.33;2.47;;;17.40;99.90;;;;;;5067220;28;20239;-81
2021/07/31 06:16:27;;;;;;;4.13;2.50;;;17.50;99.90;;;;;;5066573;28;20725;-81
2021/07/31 06:18:58;;;;;;;5.43;2.50;;;17.70;99.90;;;;;;5067132;28;20227;-80
2021/07/31 06:21:26;;;;;;;5.90;2.47;;;17.90;99.90;;;;;;5057702;28;20268;-81
2021/07/31 06:23:54;;;;;;;5.30;2.20;;;17.90;99.90;;;;;;5047255;28;20228;-80
2021/07/31 06:26:22;;;;;;;5.00;2.40;;;17.80;99.90;;;;;;5055120;28;20235;-82
2021/07/31 06:28:50;;;;;;;7.37;2.50;;;17.60;99.90;;;;;;5067164;28;20322;-81
2021/07/31 06:31:19;;;;;;;4.43;2.53;;;17.50;99.90;;;;;;5064968;28;20254;-80
2021/07/31 06:33:47;;;;;;;5.07;2.17;;;17.50;99.90;;;;;;5066576;28;20322;-80
2021/07/31 06:36:20;;;;;;;5.00;2.37;;;17.50;99.90;;;;;;5059750;28;20246;-81
2021/07/31 06:38:48;;;;;;;4.33;2.33;;;17.60;99.90;;;;;;5045560;28;20833;-81
2021/07/31 06:41:16;;;;;;;6.97;2.40;;;17.50;99.90;;;;;;5046609;28;20235;-81
2021/07/31 06:43:44;;;;;;;4.50;2.30;;;17.50;99.90;;;;;;5044994;28;20236;-80
2021/07/31 06:46:13;;;;;;;6.63;2.60;;;17.50;99.90;;;;;;5046495;28;20263;-80
2021/07/31 06:48:42;;;;;;;8.03;2.50;;;17.60;99.90;;;;;;5047033;28;20283;-81
2021/07/31 06:51:11;;;;;;;4.20;2.33;;;17.70;99.90;;;;;;5046458;28;20257;-81
2021/07/31 06:53:40;;;;;;;6.07;2.33;;;17.80;99.90;;;;;;5045010;28;20236;-80
2021/07/31 06:56:08;;;;;;;5.83;2.63;;;17.60;99.90;;;;;;5053016;28;20326;-81
2021/07/31 07:02:19;;;;;;;6.24;2.34;;;17.70;99.90;;;;;;811730;28;10002923;-80
2021/07/31 07:04:47;;;;;;;4.90;2.60;;;17.80;99.90;;;;;;5045948;28;20428;-81
2021/07/31 07:07:19;;;;;;;3.77;2.37;;;18.00;99.90;;;;;;5062131;28;20259;-81
2021/07/31 07:09:48;;;;;;;6.40;2.40;;;18.20;99.90;;;;;;5070599;28;20242;-81
2021/07/31 07:12:16;;;;;;;5.43;2.57;;;18.60;99.90;;;;;;5037096;28;20243;-81
2021/07/31 07:14:44;;;;;;;5.53;2.33;;;18.70;99.90;;;;;;5020368;28;20244;-82
2021/07/31 07:17:13;;;;;;;6.80;2.60;;;18.70;99.90;;;;;;5044968;28;20239;-82
2021/07/31 07:19:41;;;;;;;6.37;2.50;;;18.60;99.90;;;;;;5050430;28;20240;-82
2021/07/31 07:22:09;;;;;;;5.47;2.20;;;18.60;99.90;;;;;;5063622;28;20264;-81
2021/07/31 07:24:37;;;;;;;5.40;2.60;;;18.80;99.90;;;;;;5068470;28;20265;-81
2021/07/31 07:27:07;;;;;;;5.13;2.27;;;18.80;99.90;;;;;;5056035;28;20239;-81
2021/07/31 07:29:35;;;;;;;3.93;2.03;;;18.90;99.90;;;;;;5049895;28;20249;-82
2021/07/31 07:32:06;;;;;;;4.90;1.97;;;18.90;99.90;;;;;;5049364;28;20232;-81
2021/07/31 07:34:38;;;;;;;3.03;1.97;;;18.90;99.90;;;;;;5050126;28;20238;-81
2021/07/31 07:37:06;;;;;;;3.23;2.13;;;18.80;99.90;;;;;;5064065;28;20247;-82
2021/07/31 07:39:34;;;;;;;5.50;2.30;;;18.70;99.90;;;;;;5068761;28;20251;-81
2021/07/31 07:42:04;;;;;;;6.23;2.43;;;18.50;99.90;;;;;;5069069;28;20229;-82
2021/07/31 07:44:34;;;;;;;5.67;2.00;;;18.50;99.90;;;;;;5069656;28;20357;-81
2021/07/31 07:47:02;;;;;;;6.23;2.47;;;18.40;99.90;;;;;;5068171;28;20272;-81
2021/07/31 07:49:30;;;;;;;6.47;2.30;;;18.40;99.90;;;;;;5070199;28;20284;-82
2021/07/31 07:51:59;;;;;;;5.03;2.50;;;18.50;99.90;;;;;;5056356;28;20242;-82
2021/07/31 07:54:29;;;;;;;3.50;2.10;;;18.60;99.90;;;;;;5049787;28;20604;-81
2021/07/31 07:56:58;;;;;;;3.07;1.90;;;18.50;99.90;;;;;;5062211;28;20263;-81
2021/07/31 07:59:26;;;;;;;3.40;1.97;;;18.50;99.90;;;;;;5070231;28;20233;-81
2021/07/31 08:01:55;;;;;;;5.53;2.20;;;18.40;99.90;;;;;;5069179;28;20237;-82
2021/07/31 08:04:24;;;;;;;5.57;2.47;;;18.30;99.90;;;;;;5069525;28;20272;-81
2021/07/31 08:06:56;;;;;;;6.47;2.37;;;18.20;99.90;;;;;;5059351;28;20243;-81
2021/07/31 08:09:24;;;;;;;4.43;2.20;;;18.30;99.90;;;;;;5029815;28;20770;-81
2021/07/31 08:11:52;;;;;;;4.30;2.40;;;18.30;99.90;;;;;;5053388;28;20260;-82
2021/07/31 08:14:20;;;;;;;6.33;2.87;;;18.30;99.90;;;;;;5069405;28;20232;-82
2021/07/31 08:16:48;;;;;;;5.17;2.50;;;18.20;99.90;;;;;;5069193;28;20233;-82
2021/07/31 08:19:18;;;;;;;5.00;2.70;;;18.10;99.90;;;;;;5063178;28;21715;-81
2021/07/31 08:21:46;;;;;;;3.20;2.50;;;18.10;99.90;;;;;;5049167;28;20261;-81
2021/07/31 08:24:16;;;;;;;6.13;2.60;;;18.10;99.90;;;;;;5049430;28;20237;-81
2021/07/31 08:26:45;;;;;;;6.50;2.70;;;18.20;99.90;;;;;;5048878;28;20900;-81
2021/07/31 08:29:13;;;;;;;5.50;2.57;;;18.30;99.90;;;;;;5049180;28;20656;-81
2021/07/31 08:31:41;;;;;;;7.07;2.73;;;18.40;99.90;;;;;;5059013;28;20466;-81
2021/07/31 08:34:10;;;;;;;6.63;2.70;;;18.40;99.90;;;;;;5068982;28;20240;-82
2021/07/31 08:36:40;;;;;;;4.03;2.60;;;18.40;99.90;;;;;;5083620;28;20236;-82
2021/07/31 08:39:09;;;;;;;6.57;2.53;;;18.40;99.90;;;;;;5069369;28;20264;-81
2021/07/31 08:41:37;;;;;;;7.07;3.07;;;18.30;99.90;;;;;;5068441;28;20689;-81
2021/07/31 08:44:05;;;;;;;4.50;2.77;;;18.20;99.90;;;;;;5068999;28;20796;-82
2021/07/31 08:46:36;;;;;;;6.23;2.70;;;18.20;99.90;;;;;;5059122;28;20242;-81
2021/07/31 08:49:07;;;;;;;5.57;3.00;;;18.20;99.90;;;;;;5047358;28;20243;-81
2021/07/31 08:51:35;;;;;;;5.53;3.00;;;18.20;99.90;;;;;;5048032;28;20241;-81
2021/07/31 08:54:05;;;;;;;6.97;3.07;;;18.10;99.90;;;;;;5048557;28;20237;-81
2021/07/31 08:56:33;;;;;;;6.17;3.13;;;18.10;99.90;;;;;;5057759;28;20231;-81
2021/07/31 08:59:01;;;;;;;6.03;3.00;;;18.20;99.90;;;;;;5068695;28;20257;-81
2021/07/31 09:01:29;;;;;;;7.20;3.30;;;18.20;99.90;;;;;;5057404;28;20254;-81
2021/07/31 09:04:09;;;;;;;5.30;2.50;;;18.20;99.90;;;;;;5048608;28;20318;-82
2021/07/31 09:06:37;;;;;;;4.77;2.67;;;18.20;99.90;;;;;;5048297;28;20245;-81
2021/07/31 09:09:07;;;;;;;6.80;2.47;;;18.30;99.90;;;;;;5048717;28;20316;-81
2021/07/31 09:11:35;;;;;;;7.93;2.87;;;18.40;99.90;;;;;;5047908;28;20246;-81
2021/07/31 09:14:11;;;;;;;4.90;2.40;;;18.50;99.90;;;;;;5047817;28;20313;-81
2021/07/31 09:16:41;;;;;;;3.47;2.37;;;18.70;99.90;;;;;;5048094;28;20238;-81
2021/07/31 09:19:11;;;;;;;6.10;2.47;;;18.70;99.90;;;;;;5048537;28;20238;-81
2021/07/31 09:21:41;;;;;;;5.27;2.50;;;19.00;99.90;;;;;;5052030;28;20323;-81
2021/07/31 09:24:18;;;;;;;5.47;2.90;;;19.40;99.90;;;;;;5063397;28;20744;-81
2021/07/31 09:26:49;;;;;;;6.07;2.50;;;19.40;99.90;;;;;;5045440;28;20242;-81
2021/07/31 09:29:20;;;;;;;5.00;2.70;;;19.20;99.90;;;;;;5048547;28;20250;-81
2021/07/31 09:31:51;;;;;;;4.90;2.47;;;19.00;99.90;;;;;;5026471;28;20794;-81
2021/07/31 09:34:32;;;;;;;5.10;2.50;;;18.80;99.90;;;;;;5028060;28;20315;-81
2021/07/31 09:37:09;;;;;;;5.03;2.70;;;18.80;99.90;;;;;;5027248;28;20326;-81
2021/07/31 09:39:56;;;;;;;4.23;2.40;;;18.70;99.90;;;;;;5028035;28;20702;-81
2021/07/31 09:42:32;;;;;;;5.67;2.50;;;18.80;99.90;;;;;;5043757;28;20689;-81
2021/07/31 09:45:04;;;;;;;4.63;2.50;;;19.00;99.90;;;;;;5047389;28;20250;-81
2021/07/31 09:47:33;;;;;;;7.60;2.97;;;19.30;99.90;;;;;;5029618;28;20246;-81
2021/07/31 09:50:03;;;;;;;9.30;3.23;;;19.50;99.90;;;;;;5027848;28;20349;-81
2021/07/31 09:52:32;;;;;;;4.23;2.70;;;19.30;99.90;;;;;;5026674;28;20234;-82
2021/07/31 09:55:02;;;;;;;6.47;2.70;;;19.50;99.90;;;;;;5027894;28;20254;-81
2021/07/31 09:57:31;;;;;;;5.03;2.70;;;19.70;99.90;;;;;;5026991;28;20252;-82
2021/07/31 10:00:04;;;;;;;5.27;2.63;;;19.80;99.90;;;;;;5027652;28;20254;-82
2021/07/31 10:02:36;;;;;;;7.07;2.50;;;20.10;99.90;;;;;;5027039;28;20702;-81
2021/07/31 10:05:05;;;;;;;5.17;2.60;;;20.00;99.90;;;;;;5027371;28;20577;-82
2021/07/31 10:07:33;;;;;;;4.43;2.40;;;19.60;99.90;;;;;;5044736;28;20265;-82
2021/07/31 10:10:03;;;;;;;4.87;2.70;;;19.50;99.90;;;;;;5047497;28;20293;-83
2021/07/31 10:12:31;;;;;;;5.13;2.70;;;19.40;99.90;;;;;;5044926;28;20721;-81
2021/07/31 10:15:00;;;;;;;3.23;2.13;;;19.20;99.90;;;;;;5047225;28;20630;-81
2021/07/31 10:17:30;;;;;;;4.93;2.50;;;19.00;99.90;;;;;;5029885;28;20444;-82
2021/07/31 10:20:00;;;;;;;5.27;2.60;;;18.90;99.90;;;;;;5027242;28;20249;-81
2021/07/31 10:22:45;;;;;;;4.40;2.60;;;19.00;99.90;;;;;;5026556;28;20266;-82
2021/07/31 10:25:15;;;;;;;4.57;2.20;;;19.20;99.90;;;;;;5027563;28;20737;-82
2021/07/31 10:27:45;;;;;;;6.60;2.50;;;19.50;99.90;;;;;;5025882;28;20241;-82
2021/07/31 10:30:33;;;;;;;3.23;2.50;;;19.70;99.90;;;;;;5032365;28;20698;-83
2021/07/31 10:33:02;;;;;;;4.53;2.30;;;20.00;99.90;;;;;;5026447;28;20702;-82
2021/07/31 10:35:35;;;;;;;5.10;2.20;;;20.10;99.90;;;;;;5028949;28;20666;-82
2021/07/31 10:38:06;;;;;;;4.83;2.77;;;20.30;99.90;;;;;;5067373;28;20238;-82
2021/07/31 10:40:54;;;;;;;5.67;2.20;;;20.30;99.90;;;;;;5066793;28;20315;-81
2021/07/31 10:43:24;;;;;;;3.97;2.33;;;20.30;99.90;;;;;;5068969;28;20246;-82
2021/07/31 10:46:18;;;;;;;3.53;2.27;;;20.40;99.90;;;;;;5069555;28;20263;-83
2021/07/31 10:48:46;;;;;;;4.63;2.20;;;20.70;99.90;;;;;;5071167;28;20268;-82
2021/07/31 10:51:40;;;;;;;5.23;2.27;;;21.10;99.90;;;;;;5063691;28;20235;-82
2021/07/31 10:54:08;;;;;;;4.90;2.10;;;20.70;99.90;;;;;;5050696;28;20243;-82
2021/07/31 10:56:57;;;;;;;5.07;2.20;;;20.40;99.90;;;;;;5059172;28;20246;-81
2021/07/31 10:59:26;;;;;;;3.33;1.87;;;20.20;99.90;;;;;;5071104;28;20258;-82
2021/07/31 11:02:30;;;;;;;3.73;1.93;;;20.20;99.90;;;;;;5070604;28;20312;-83
2021/07/31 11:05:00;;;;;;;5.63;2.53;;;20.40;99.90;;;;;;5068093;28;20764;-82
2021/07/31 11:07:29;;;;;;;3.83;2.30;;;20.60;99.90;;;;;;5070335;28;20253;-81
2021/07/31 11:10:42;;;;;;;5.03;1.83;;;20.50;99.90;;;;;;5070881;28;20238;-82
2021/07/31 11:13:13;;;;;;;3.10;2.03;;;20.60;99.90;;;;;;5070191;28;20312;-81
2021/07/31 11:16:17;;;;;;;2.97;1.83;;;20.80;99.90;;;;;;5067988;28;20237;-81
2021/07/31 11:18:48;;;;;;;8.37;2.40;;;20.70;99.90;;;;;;5050633;28;20238;-82
2021/07/31 11:21:18;;;;;;;5.70;2.57;;;20.00;99.90;;;;;;5049874;28;20312;-81
2021/07/31 11:23:48;;;;;;;4.10;2.00;;;19.60;99.90;;;;;;5050376;28;20329;-82
2021/07/31 11:26:38;;;;;;;6.20;2.10;;;19.50;99.90;;;;;;5050336;28;20234;-81
2021/07/31 11:29:13;;;;;;;4.50;2.17;;;19.30;99.90;;;;;;5050475;28;20243;-81
2021/07/31 11:31:44;;;;;;;3.67;2.10;;;19.10;99.90;;;;;;5060056;28;20245;-82
2021/07/31 11:34:13;;;;;;;5.87;2.30;;;18.80;99.90;;;;;;5085614;28;20242;-81
2021/07/31 11:36:53;;;;;;;4.80;2.40;;;18.70;99.90;;;;;;5059402;28;20320;-82
2021/07/31 11:39:22;;;;;;;5.43;2.47;;;18.70;99.90;;;;;;5050339;28;20234;-81
2021/07/31 11:41:50;;;;;;;4.33;2.60;;;18.70;99.90;;;;;;5061064;28;20745;-82
2021/07/31 11:44:26;;;;;;;4.57;2.50;;;18.60;99.90;;;;;;5070058;28;20245;-82
2021/07/31 11:46:54;;;;;;;3.67;1.90;;;18.50;99.90;;;;;;5069992;28;20232;-81
2021/07/31 11:49:27;;;;;;;3.23;2.10;;;18.40;99.90;;;;;;5070367;28;20236;-82
2021/07/31 11:51:56;;;;;;;3.17;2.00;;;18.30;99.90;;;;;;5068069;28;20310;-81
2021/07/31 11:54:25;;;;;;;4.07;2.20;;;18.40;99.90;;;;;;5068551;28;20282;-82
2021/07/31 11:56:54;;;;;;;4.50;2.23;;;18.50;99.90;;;;;;5057459;28;20242;-82
2021/07/31 11:59:25;;;;;;;4.20;2.20;;;18.60;99.90;;;;;;5065329;28;20627;-82
2021/07/31 12:01:55;;;;;;;4.37;2.10;;;18.60;99.90;;;;;;5049723;28;20594;-81
2021/07/31 12:04:47;;;;;;;5.67;2.10;;;18.60;99.90;;;;;;5048388;28;20598;-81
2021/07/31 12:07:17;;;;;;;4.30;1.90;;;18.60;99.90;;;;;;5049377;28;20242;-82
2021/07/31 12:09:58;;;;;;;3.90;1.80;;;18.50;99.90;;;;;;5048449;28;20249;-81
2021/07/31 12:12:28;;;;;;;4.27;2.13;;;18.50;99.90;;;;;;5064905;28;20258;-81
2021/07/31 12:15:17;;;;;;;4.97;2.17;;;18.60;99.90;;;;;;5069850;28;20256;-81
2021/07/31 12:18:02;;;;;;;4.23;1.97;;;18.60;99.90;;;;;;5069019;28;20299;-81
2021/07/31 12:20:32;;;;;;;3.97;1.87;;;18.70;99.90;;;;;;5065636;28;20244;-81
2021/07/31 12:23:01;;;;;;;3.43;1.83;;;18.80;99.90;;;;;;5049181;28;20286;-82
2021/07/31 12:25:30;;;;;;;3.90;1.67;;;19.10;99.90;;;;;;5036125;28;20964;-82
2021/07/31 12:28:00;;;;;;;2.70;1.70;;;19.60;99.90;;;;;;5069074;28;20628;-81
2021/07/31 12:30:32;;;;;;;4.07;1.70;;;19.90;99.90;;;;;;5067980;28;20248;-82
2021/07/31 12:33:02;;;;;;;5.60;1.80;;;20.00;99.90;;;;;;5047519;28;20242;-82
2021/07/31 12:35:32;;;;;;;5.37;1.87;;;19.90;99.90;;;;;;5048726;28;20243;-82
2021/07/31 12:38:05;;;;;;;4.90;1.50;;;19.80;99.90;;;;;;5048803;28;20748;-82
2021/07/31 12:40:33;;;;;;;5.10;1.50;;;19.90;99.90;;;;;;5048441;28;20564;-82
2021/07/31 12:43:02;;;;;;;4.57;1.70;;;20.00;99.90;;;;;;5045635;28;20233;-82
2021/07/31 12:45:31;;;;;;;4.00;1.50;;;19.90;99.90;;;;;;5048602;28;20525;-82
2021/07/31 12:47:59;;;;;;;4.50;1.60;;;19.90;99.90;;;;;;5048197;28;20265;-82
2021/07/31 12:50:28;;;;;;;4.83;1.77;;;19.80;99.90;;;;;;5047965;28;20254;-82
2021/07/31 12:52:56;;;;;;;2.40;1.50;;;19.80;99.90;;;;;;5083311;28;20241;-82
2021/07/31 12:55:25;;;;;;;4.53;1.40;;;19.80;99.90;;;;;;5067804;28;20284;-82
2021/07/31 12:57:53;;;;;;;2.43;1.50;;;19.90;99.90;;;;;;5047811;28;20235;-82
2021/07/31 13:00:21;;;;;;;3.13;1.63;;;19.80;99.90;;;;;;5047673;28;20234;-81
2021/07/31 13:03:07;;;;;;;4.87;1.60;;;20.00;99.90;;;;;;5046943;28;20694;-82
2021/07/31 13:05:36;;;;;;;2.60;1.50;;;20.00;99.90;;;;;;5048380;28;20246;-82
2021/07/31 13:08:05;;;;;;;2.83;1.30;;;20.00;99.90;;;;;;5067412;28;21112;-82
2021/07/31 13:10:34;;;;;;;2.23;1.60;;;20.30;99.90;;;;;;5065726;28;20238;-82